sensor_id;sensor_type;location;lat;lon;timestamp;temperature;humidity
23562;DHT22;11959;49.418;8.728;2023-03-01T00:00:53;2.00;99.90
23562;DHT22;11959;49.418;8.728;2023-03-01T00:03:19;1.90;99.90
23562;DHT22;11959;49.418;8.728;2023-03-01T00:05:45;1.90;99.90
23562;DHT22;11959;49.418;8.728;2023-03-01T00:08:11;1.90;99.90
23562;DHT22;11959;49.418;8.728;2023-03-01T00:10:37;1.90;99.90
23562;DHT22;11959;49.418;8.728;2023-03-01T00:13:02;1.80;99.90
23562;DHT22;11959;49.418;8.728;2023-03-01T00:15:31;1.90;99.90
23562;DHT22;11959;49.418;8.728;2023-03-01T00:17:57;1.80;99.90
23562;DHT22;11959;49.418;8.728;2023-03-01T00:20:23;1.80;99.90
23562;DHT22;11959;49.418;8.728;2023-03-01T00:22:48;1.80;99.90
23562;DHT22;11959;49.418;8.728;2023-03-01T00:25:14;1.80;99.90
23562;DHT22;11959;49.418;8.728;2023-03-01T00:27:39;1.80;99.90
23562;DHT22;11959;49.418;8.728;2023-03-01T00:30:06;1.80;99.90
23562;DHT22;11959;49.418;8.728;2023-03-01T00:32:31;1.80;99.90
23562;DHT22;11959;49.418;8.728;2023-03-01T00:34:57;1.80;99.90
23562;DHT22;11959;49.418;8.728;2023-03-01T00:37:23;1.90;99.90
23562;DHT22;11959;49.418;8.728;2023-03-01T00:39:49;1.90;99.90
23562;DHT22;11959;49.418;8.728;2023-03-01T00:42:16;2.00;99.90
23562;DHT22;11959;49.418;8.728;2023-03-01T00:44:41;1.90;99.90
23562;DHT22;11959;49.418;8.728;2023-03-01T00:47:07;1.90;99.90
23562;DHT22;11959;49.418;8.728;2023-03-01T00:49:33;1.90;99.90
23562;DHT22;11959;49.418;8.728;2023-03-01T00:51:59;1.90;99.90
23562;DHT22;11959;49.418;8.728;2023-03-01T00:54:25;1.90;99.90
23562;DHT22;11959;49.418;8.728;2023-03-01T00:56:50;1.90;99.90
23562;DHT22;11959;49.418;8.728;2023-03-01T00:59:16;1.90;99.90
23562;DHT22;11959;49.418;8.728;2023-03-01T01:01:42;1.90;99.90
23562;DHT22;11959;49.418;8.728;2023-03-01T01:04:10;1.90;99.90
23562;DHT22;11959;49.418;8.728;2023-03-01T01:06:43;1.80;99.90
23562;DHT22;11959;49.418;8.728;2023-03-01T01:09:10;1.80;99.90
23562;DHT22;11959;49.418;8.728;2023-03-01T01:11:43;1.90;99.90
23562;DHT22;11959;49.418;8.728;2023-03-01T01:14:09;2.00;99.90
23562;DHT22;11959;49.418;8.728;2023-03-01T01:16:35;1.80;99.90
23562;DHT22;11959;49.418;8.728;2023-03-01T01:19:01;1.90;99.90
23562;DHT22;11959;49.418;8.728;2023-03-01T01:21:27;1.90;99.90
23562;DHT22;11959;49.418;8.728;2023-03-01T01:23:54;1.80;99.90
23562;DHT22;11959;49.418;8.728;2023-03-01T01:26:25;1.80;99.90
23562;DHT22;11959;49.418;8.728;2023-03-01T01:28:52;1.70;99.90
23562;DHT22;11959;49.418;8.728;2023-03-01T01:31:18;1.70;99.90
23562;DHT22;11959;49.418;8.728;2023-03-01T01:33:44;1.70;99.90
23562;DHT22;11959;49.418;8.728;2023-03-01T01:36:10;1.70;99.90
23562;DHT22;11959;49.418;8.728;2023-03-01T01:38:37;1.70;99.90
23562;DHT22;11959;49.418;8.728;2023-03-01T01:41:04;1.70;99.90
23562;DHT22;11959;49.418;8.728;2023-03-01T01:43:34;1.70;99.90
23562;DHT22;11959;49.418;8.728;2023-03-01T01:47:03;1.70;99.90
23562;DHT22;11959;49.418;8.728;2023-03-01T01:49:35;1.60;99.90
23562;DHT22;11959;49.418;8.728;2023-03-01T01:52:14;1.60;99.90
23562;DHT22;11959;49.418;8.728;2023-03-01T01:54:50;1.50;99.90
23562;DHT22;11959;49.418;8.728;2023-03-01T01:57:22;1.50;99.90
23562;DHT22;11959;49.418;8.728;2023-03-01T01:59:52;1.40;99.90
23562;DHT22;11959;49.418;8.728;2023-03-01T02:02:20;1.50;99.90
23562;DHT22;11959;49.418;8.728;2023-03-01T02:04:47;1.50;99.90
23562;DHT22;11959;49.418;8.728;2023-03-01T02:07:17;1.40;99.90
23562;DHT22;11959;49.418;8.728;2023-03-01T02:09:48;1.40;99.90
23562;DHT22;11959;49.418;8.728;2023-03-01T02:12:16;1.40;99.90
23562;DHT22;11959;49.418;8.728;2023-03-01T02:14:43;1.40;99.90
23562;DHT22;11959;49.418;8.728;2023-03-01T02:17:10;1.30;99.90
23562;DHT22;11959;49.418;8.728;2023-03-01T02:22:27;1.30;99.90
23562;DHT22;11959;49.418;8.728;2023-03-01T02:30:38;1.40;99.90
23562;DHT22;11959;49.418;8.728;2023-03-01T02:33:26;1.40;99.90
23562;DHT22;11959;49.418;8.728;2023-03-01T02:35:53;1.40;99.90
23562;DHT22;11959;49.418;8.728;2023-03-01T02:38:20;1.30;99.90
23562;DHT22;11959;49.418;8.728;2023-03-01T02:40:49;1.30;99.90
23562;DHT22;11959;49.418;8.728;2023-03-01T02:43:16;1.30;99.90
23562;DHT22;11959;49.418;8.728;2023-03-01T02:45:49;1.30;99.90
23562;DHT22;11959;49.418;8.728;2023-03-01T02:48:15;1.30;99.90
23562;DHT22;11959;49.418;8.728;2023-03-01T02:56:11;1.30;99.90
23562;DHT22;11959;49.418;8.728;2023-03-01T02:58:40;1.30;99.90
23562;DHT22;11959;49.418;8.728;2023-03-01T03:01:11;1.30;99.90
23562;DHT22;11959;49.418;8.728;2023-03-01T03:03:39;1.30;99.90
23562;DHT22;11959;49.418;8.728;2023-03-01T03:06:04;1.30;99.90
23562;DHT22;11959;49.418;8.728;2023-03-01T03:08:30;1.30;99.90
23562;DHT22;11959;49.418;8.728;2023-03-01T03:10:56;1.20;99.90
23562;DHT22;11959;49.418;8.728;2023-03-01T03:13:21;1.20;99.90
23562;DHT22;11959;49.418;8.728;2023-03-01T03:15:47;1.20;99.90
23562;DHT22;11959;49.418;8.728;2023-03-01T03:18:16;1.20;99.90
23562;DHT22;11959;49.418;8.728;2023-03-01T03:20:43;1.20;99.90
23562;DHT22;11959;49.418;8.728;2023-03-01T03:23:08;1.10;99.90
23562;DHT22;11959;49.418;8.728;2023-03-01T03:25:34;1.10;99.90
23562;DHT22;11959;49.418;8.728;2023-03-01T03:28:03;1.10;99.90
23562;DHT22;11959;49.418;8.728;2023-03-01T03:30:36;1.10;99.90
23562;DHT22;11959;49.418;8.728;2023-03-01T03:33:02;1.10;99.90
23562;DHT22;11959;49.418;8.728;2023-03-01T03:35:29;1.10;99.90
23562;DHT22;11959;49.418;8.728;2023-03-01T03:37:57;1.10;99.90
23562;DHT22;11959;49.418;8.728;2023-03-01T03:40:39;1.10;99.90
23562;DHT22;11959;49.418;8.728;2023-03-01T03:43:11;1.10;99.90
23562;DHT22;11959;49.418;8.728;2023-03-01T03:45:37;1.10;99.90
23562;DHT22;11959;49.418;8.728;2023-03-01T03:48:05;1.20;99.90
23562;DHT22;11959;49.418;8.728;2023-03-01T03:50:32;1.10;99.90
23562;DHT22;11959;49.418;8.728;2023-03-01T03:52:59;1.10;99.90
23562;DHT22;11959;49.418;8.728;2023-03-01T03:55:25;1.10;99.90
23562;DHT22;11959;49.418;8.728;2023-03-01T03:57:57;1.10;99.90
23562;DHT22;11959;49.418;8.728;2023-03-01T04:00:23;1.10;99.90
23562;DHT22;11959;49.418;8.728;2023-03-01T04:02:50;1.10;99.90
23562;DHT22;11959;49.418;8.728;2023-03-01T04:05:18;1.00;99.90
23562;DHT22;11959;49.418;8.728;2023-03-01T04:07:44;1.10;99.90
23562;DHT22;11959;49.418;8.728;2023-03-01T04:10:14;1.10;99.90
23562;DHT22;11959;49.418;8.728;2023-03-01T04:12:39;1.10;99.90
23562;DHT22;11959;49.418;8.728;2023-03-01T04:15:07;1.10;99.90
23562;DHT22;11959;49.418;8.728;2023-03-01T04:17:41;1.00;99.90
23562;DHT22;11959;49.418;8.728;2023-03-01T04:20:13;1.00;99.90
23562;DHT22;11959;49.418;8.728;2023-03-01T04:22:40;1.10;99.90
23562;DHT22;11959;49.418;8.728;2023-03-01T04:25:06;1.10;99.90
23562;DHT22;11959;49.418;8.728;2023-03-01T04:27:36;1.00;99.90
23562;DHT22;11959;49.418;8.728;2023-03-01T04:30:02;1.00;99.90
23562;DHT22;11959;49.418;8.728;2023-03-01T04:32:28;1.00;99.90
23562;DHT22;11959;49.418;8.728;2023-03-01T04:34:54;1.00;99.90
23562;DHT22;11959;49.418;8.728;2023-03-01T04:37:20;1.00;99.90
23562;DHT22;11959;49.418;8.728;2023-03-01T04:39:45;1.00;99.90
23562;DHT22;11959;49.418;8.728;2023-03-01T04:42:13;1.00;99.90
23562;DHT22;11959;49.418;8.728;2023-03-01T04:44:39;1.00;99.90
23562;DHT22;11959;49.418;8.728;2023-03-01T04:47:05;1.00;99.90
23562;DHT22;11959;49.418;8.728;2023-03-01T04:49:31;1.00;99.90
23562;DHT22;11959;49.418;8.728;2023-03-01T04:51:57;1.00;99.90
23562;DHT22;11959;49.418;8.728;2023-03-01T04:54:28;1.00;99.90
23562;DHT22;11959;49.418;8.728;2023-03-01T04:56:54;1.00;99.90
23562;DHT22;11959;49.418;8.728;2023-03-01T04:59:20;0.90;99.90
23562;DHT22;11959;49.418;8.728;2023-03-01T05:01:48;0.90;99.90
23562;DHT22;11959;49.418;8.728;2023-03-01T05:04:14;1.00;99.90
23562;DHT22;11959;49.418;8.728;2023-03-01T05:06:40;1.00;99.90
23562;DHT22;11959;49.418;8.728;2023-03-01T05:09:06;1.00;99.90
23562;DHT22;11959;49.418;8.728;2023-03-01T05:11:32;1.00;99.90
23562;DHT22;11959;49.418;8.728;2023-03-01T05:14:02;0.90;99.90
23562;DHT22;11959;49.418;8.728;2023-03-01T05:16:27;0.90;99.90
23562;DHT22;11959;49.418;8.728;2023-03-01T05:18:53;0.90;99.90
23562;DHT22;11959;49.418;8.728;2023-03-01T05:21:21;0.90;99.90
23562;DHT22;11959;49.418;8.728;2023-03-01T05:23:48;0.90;99.90
23562;DHT22;11959;49.418;8.728;2023-03-01T05:26:18;0.90;99.90
23562;DHT22;11959;49.418;8.728;2023-03-01T05:28:48;0.90;99.90
23562;DHT22;11959;49.418;8.728;2023-03-01T05:31:20;0.90;99.90
23562;DHT22;11959;49.418;8.728;2023-03-01T05:33:49;0.90;99.90
23562;DHT22;11959;49.418;8.728;2023-03-01T05:36:15;0.90;99.90
23562;DHT22;11959;49.418;8.728;2023-03-01T05:38:41;1.00;99.90
23562;DHT22;11959;49.418;8.728;2023-03-01T05:41:14;1.00;99.90
23562;DHT22;11959;49.418;8.728;2023-03-01T05:43:40;1.10;99.90
23562;DHT22;11959;49.418;8.728;2023-03-01T05:46:08;1.10;99.90
23562;DHT22;11959;49.418;8.728;2023-03-01T05:48:37;1.10;99.90
23562;DHT22;11959;49.418;8.728;2023-03-01T05:51:04;1.10;99.90
23562;DHT22;11959;49.418;8.728;2023-03-01T05:53:30;1.10;99.90
23562;DHT22;11959;49.418;8.728;2023-03-01T05:55:55;1.20;99.90
23562;DHT22;11959;49.418;8.728;2023-03-01T05:58:21;1.20;99.90
23562;DHT22;11959;49.418;8.728;2023-03-01T06:00:48;1.10;99.90
23562;DHT22;11959;49.418;8.728;2023-03-01T06:03:15;1.20;99.90
23562;DHT22;11959;49.418;8.728;2023-03-01T06:05:42;1.20;99.90
23562;DHT22;11959;49.418;8.728;2023-03-01T06:08:09;1.20;99.90
23562;DHT22;11959;49.418;8.728;2023-03-01T06:10:35;1.20;99.90
23562;DHT22;11959;49.418;8.728;2023-03-01T06:13:01;1.20;99.90
23562;DHT22;11959;49.418;8.728;2023-03-01T06:15:26;1.20;99.90
23562;DHT22;11959;49.418;8.728;2023-03-01T06:17:54;1.20;99.90
23562;DHT22;11959;49.418;8.728;2023-03-01T06:20:23;1.30;99.90
23562;DHT22;11959;49.418;8.728;2023-03-01T06:22:49;1.20;99.90
23562;DHT22;11959;49.418;8.728;2023-03-01T06:25:19;1.20;99.90
23562;DHT22;11959;49.418;8.728;2023-03-01T06:27:45;1.20;99.90
23562;DHT22;11959;49.418;8.728;2023-03-01T06:30:13;1.20;99.90
23562;DHT22;11959;49.418;8.728;2023-03-01T06:32:40;1.20;99.90
23562;DHT22;11959;49.418;8.728;2023-03-01T06:35:13;1.20;99.90
23562;DHT22;11959;49.418;8.728;2023-03-01T06:37:39;1.20;99.90
23562;DHT22;11959;49.418;8.728;2023-03-01T06:40:06;1.20;99.90
23562;DHT22;11959;49.418;8.728;2023-03-01T06:42:37;1.20;99.90
23562;DHT22;11959;49.418;8.728;2023-03-01T06:45:05;1.30;99.90
23562;DHT22;11959;49.418;8.728;2023-03-01T06:47:31;1.30;99.90
23562;DHT22;11959;49.418;8.728;2023-03-01T06:49:58;1.40;99.90
23562;DHT22;11959;49.418;8.728;2023-03-01T06:52:24;1.40;99.90
23562;DHT22;11959;49.418;8.728;2023-03-01T06:54:50;1.40;99.90
23562;DHT22;11959;49.418;8.728;2023-03-01T06:57:16;1.40;99.90
23562;DHT22;11959;49.418;8.728;2023-03-01T06:59:42;1.40;99.90
23562;DHT22;11959;49.418;8.728;2023-03-01T07:02:10;1.50;99.90
23562;DHT22;11959;49.418;8.728;2023-03-01T07:04:37;1.50;99.90
23562;DHT22;11959;49.418;8.728;2023-03-01T07:07:02;1.50;99.90
23562;DHT22;11959;49.418;8.728;2023-03-01T07:09:28;1.50;99.90
23562;DHT22;11959;49.418;8.728;2023-03-01T07:11:54;1.60;99.90
23562;DHT22;11959;49.418;8.728;2023-03-01T07:14:20;1.60;99.90
23562;DHT22;11959;49.418;8.728;2023-03-01T07:16:46;1.60;99.90
23562;DHT22;11959;49.418;8.728;2023-03-01T07:19:11;1.50;99.90
23562;DHT22;11959;49.418;8.728;2023-03-01T07:21:37;1.50;99.90
23562;DHT22;11959;49.418;8.728;2023-03-01T07:24:06;1.60;99.90
23562;DHT22;11959;49.418;8.728;2023-03-01T07:26:32;1.70;99.90
23562;DHT22;11959;49.418;8.728;2023-03-01T07:29:02;1.70;99.90
23562;DHT22;11959;49.418;8.728;2023-03-01T07:31:28;1.70;99.90
23562;DHT22;11959;49.418;8.728;2023-03-01T07:33:54;1.70;99.90
23562;DHT22;11959;49.418;8.728;2023-03-01T07:36:20;1.70;99.90
23562;DHT22;11959;49.418;8.728;2023-03-01T07:38:46;1.80;99.90
23562;DHT22;11959;49.418;8.728;2023-03-01T07:41:12;1.80;99.90
23562;DHT22;11959;49.418;8.728;2023-03-01T07:43:38;1.80;99.90
23562;DHT22;11959;49.418;8.728;2023-03-01T07:46:04;1.90;99.90
23562;DHT22;11959;49.418;8.728;2023-03-01T07:48:31;1.90;99.90
23562;DHT22;11959;49.418;8.728;2023-03-01T07:51:02;1.90;99.90
23562;DHT22;11959;49.418;8.728;2023-03-01T07:53:28;1.90;99.90
23562;DHT22;11959;49.418;8.728;2023-03-01T07:56:01;2.00;99.90
23562;DHT22;11959;49.418;8.728;2023-03-01T07:58:27;2.00;99.90
23562;DHT22;11959;49.418;8.728;2023-03-01T08:00:53;2.00;99.90
23562;DHT22;11959;49.418;8.728;2023-03-01T08:03:18;2.00;99.90
23562;DHT22;11959;49.418;8.728;2023-03-01T08:05:44;2.00;99.90
23562;DHT22;11959;49.418;8.728;2023-03-01T08:08:10;2.10;99.90
23562;DHT22;11959;49.418;8.728;2023-03-01T08:10:36;2.10;99.90
23562;DHT22;11959;49.418;8.728;2023-03-01T08:13:02;2.20;99.90
23562;DHT22;11959;49.418;8.728;2023-03-01T08:15:28;2.20;99.90
23562;DHT22;11959;49.418;8.728;2023-03-01T08:17:53;2.30;99.90
23562;DHT22;11959;49.418;8.728;2023-03-01T08:20:19;2.30;99.90
23562;DHT22;11959;49.418;8.728;2023-03-01T08:22:44;2.40;99.90
23562;DHT22;11959;49.418;8.728;2023-03-01T08:25:10;2.40;99.90
23562;DHT22;11959;49.418;8.728;2023-03-01T08:27:36;2.50;99.90
23562;DHT22;11959;49.418;8.728;2023-03-01T08:30:01;2.60;99.90
23562;DHT22;11959;49.418;8.728;2023-03-01T08:32:27;2.50;99.90
23562;DHT22;11959;49.418;8.728;2023-03-01T08:34:53;2.50;99.90
23562;DHT22;11959;49.418;8.728;2023-03-01T08:37:18;2.60;99.90
23562;DHT22;11959;49.418;8.728;2023-03-01T08:39:44;2.60;99.90
23562;DHT22;11959;49.418;8.728;2023-03-01T08:42:09;2.70;99.90
23562;DHT22;11959;49.418;8.728;2023-03-01T08:44:35;2.70;99.90
23562;DHT22;11959;49.418;8.728;2023-03-01T08:47:01;2.80;99.90
23562;DHT22;11959;49.418;8.728;2023-03-01T08:49:27;2.80;99.90
23562;DHT22;11959;49.418;8.728;2023-03-01T08:51:53;2.90;99.90
23562;DHT22;11959;49.418;8.728;2023-03-01T08:54:21;2.90;99.90
23562;DHT22;11959;49.418;8.728;2023-03-01T08:56:47;2.90;99.90
23562;DHT22;11959;49.418;8.728;2023-03-01T08:59:15;3.00;99.90
23562;DHT22;11959;49.418;8.728;2023-03-01T09:01:41;3.00;99.90
23562;DHT22;11959;49.418;8.728;2023-03-01T09:04:09;3.00;99.90
23562;DHT22;11959;49.418;8.728;2023-03-01T09:06:36;3.10;99.90
23562;DHT22;11959;49.418;8.728;2023-03-01T09:09:04;3.10;99.90
23562;DHT22;11959;49.418;8.728;2023-03-01T09:11:30;3.20;99.90
23562;DHT22;11959;49.418;8.728;2023-03-01T09:13:56;3.30;99.90
23562;DHT22;11959;49.418;8.728;2023-03-01T09:16:22;3.30;99.90
23562;DHT22;11959;49.418;8.728;2023-03-01T09:18:52;3.30;99.90
23562;DHT22;11959;49.418;8.728;2023-03-01T09:21:21;3.40;99.90
23562;DHT22;11959;49.418;8.728;2023-03-01T09:23:48;3.50;99.90
23562;DHT22;11959;49.418;8.728;2023-03-01T09:26:19;3.50;99.90
23562;DHT22;11959;49.418;8.728;2023-03-01T09:28:47;3.60;99.90
23562;DHT22;11959;49.418;8.728;2023-03-01T09:31:14;3.60;99.90
23562;DHT22;11959;49.418;8.728;2023-03-01T09:33:41;3.60;99.90
23562;DHT22;11959;49.418;8.728;2023-03-01T09:36:14;3.70;99.90
23562;DHT22;11959;49.418;8.728;2023-03-01T09:38:40;3.80;99.90
23562;DHT22;11959;49.418;8.728;2023-03-01T09:41:14;3.90;99.90
23562;DHT22;11959;49.418;8.728;2023-03-01T09:43:52;3.90;99.90
23562;DHT22;11959;49.418;8.728;2023-03-01T09:46:21;3.90;99.90
23562;DHT22;11959;49.418;8.728;2023-03-01T09:48:54;4.00;99.90
23562;DHT22;11959;49.418;8.728;2023-03-01T09:51:34;4.00;99.90
23562;DHT22;11959;49.418;8.728;2023-03-01T09:54:04;4.00;99.90
23562;DHT22;11959;49.418;8.728;2023-03-01T09:56:37;4.00;99.90
23562;DHT22;11959;49.418;8.728;2023-03-01T10:02:00;4.10;99.90
23562;DHT22;11959;49.418;8.728;2023-03-01T10:10:26;4.30;99.90
23562;DHT22;11959;49.418;8.728;2023-03-01T10:12:53;4.40;99.90
23562;DHT22;11959;49.418;8.728;2023-03-01T10:15:28;4.40;99.90
23562;DHT22;11959;49.418;8.728;2023-03-01T10:18:03;4.40;99.90
23562;DHT22;11959;49.418;8.728;2023-03-01T10:23:16;4.60;99.90
23562;DHT22;11959;49.418;8.728;2023-03-01T10:25:56;4.60;99.90
23562;DHT22;11959;49.418;8.728;2023-03-01T10:28:31;4.60;99.90
23562;DHT22;11959;49.418;8.728;2023-03-01T10:30:58;4.60;99.90
23562;DHT22;11959;49.418;8.728;2023-03-01T10:33:31;4.60;99.90
23562;DHT22;11959;49.418;8.728;2023-03-01T10:35:57;4.70;99.90
23562;DHT22;11959;49.418;8.728;2023-03-01T10:38:23;4.80;99.90
23562;DHT22;11959;49.418;8.728;2023-03-01T10:41:00;4.80;99.90
23562;DHT22;11959;49.418;8.728;2023-03-01T10:43:57;4.90;99.90
23562;DHT22;11959;49.418;8.728;2023-03-01T10:49:16;5.00;99.90
23562;DHT22;11959;49.418;8.728;2023-03-01T10:51:45;5.00;99.90
23562;DHT22;11959;49.418;8.728;2023-03-01T10:54:22;5.00;99.90
23562;DHT22;11959;49.418;8.728;2023-03-01T10:56:53;5.20;99.90
23562;DHT22;11959;49.418;8.728;2023-03-01T11:04:29;5.50;99.90
23562;DHT22;11959;49.418;8.728;2023-03-01T11:06:59;5.60;99.90
23562;DHT22;11959;49.418;8.728;2023-03-01T11:09:25;5.70;99.90
23562;DHT22;11959;49.418;8.728;2023-03-01T11:11:57;5.80;99.90
23562;DHT22;11959;49.418;8.728;2023-03-01T11:14:25;6.00;99.90
23562;DHT22;11959;49.418;8.728;2023-03-01T11:17:05;6.00;99.90
23562;DHT22;11959;49.418;8.728;2023-03-01T11:19:37;6.00;99.90
23562;DHT22;11959;49.418;8.728;2023-03-01T11:22:18;6.10;99.90
23562;DHT22;11959;49.418;8.728;2023-03-01T11:24:48;6.20;99.90
23562;DHT22;11959;49.418;8.728;2023-03-01T11:27:38;6.30;99.90
23562;DHT22;11959;49.418;8.728;2023-03-01T11:36:00;6.50;99.90
23562;DHT22;11959;49.418;8.728;2023-03-01T11:38:28;6.70;99.90
23562;DHT22;11959;49.418;8.728;2023-03-01T11:43:56;6.80;99.90
23562;DHT22;11959;49.418;8.728;2023-03-01T11:52:03;7.10;99.90
23562;DHT22;11959;49.418;8.728;2023-03-01T11:54:57;7.00;99.90
23562;DHT22;11959;49.418;8.728;2023-03-01T12:03:00;7.20;99.90
23562;DHT22;11959;49.418;8.728;2023-03-01T12:08:38;7.20;99.90
23562;DHT22;11959;49.418;8.728;2023-03-01T12:22:28;7.50;99.90
23562;DHT22;11959;49.418;8.728;2023-03-01T12:30:31;7.60;99.90
23562;DHT22;11959;49.418;8.728;2023-03-01T12:35:45;7.60;99.90
23562;DHT22;11959;49.418;8.728;2023-03-01T12:38:45;7.70;99.90
23562;DHT22;11959;49.418;8.728;2023-03-01T12:41:21;7.70;99.90
23562;DHT22;11959;49.418;8.728;2023-03-01T12:49:47;7.80;99.90
23562;DHT22;11959;49.418;8.728;2023-03-01T12:54:47;7.90;99.90
23562;DHT22;11959;49.418;8.728;2023-03-01T12:57:21;7.90;99.90
23562;DHT22;11959;49.418;8.728;2023-03-01T12:59:57;8.00;99.90
23562;DHT22;11959;49.418;8.728;2023-03-01T13:05:47;8.20;99.50
23562;DHT22;11959;49.418;8.728;2023-03-01T13:08:35;8.10;99.70
23562;DHT22;11959;49.418;8.728;2023-03-01T13:11:05;8.20;99.90
23562;DHT22;11959;49.418;8.728;2023-03-01T13:13:31;8.30;99.10
23562;DHT22;11959;49.418;8.728;2023-03-01T13:15:57;8.20;99.10
23562;DHT22;11959;49.418;8.728;2023-03-01T13:18:43;8.10;99.40
23562;DHT22;11959;49.418;8.728;2023-03-01T13:21:08;8.10;99.60
23562;DHT22;11959;49.418;8.728;2023-03-01T13:23:37;8.10;99.30
23562;DHT22;11959;49.418;8.728;2023-03-01T13:26:07;8.10;99.50
23562;DHT22;11959;49.418;8.728;2023-03-01T13:31:01;8.20;99.20
23562;DHT22;11959;49.418;8.728;2023-03-01T13:35:57;8.20;99.40
23562;DHT22;11959;49.418;8.728;2023-03-01T13:41:48;8.30;99.10
23562;DHT22;11959;49.418;8.728;2023-03-01T13:47:36;8.30;99.10
23562;DHT22;11959;49.418;8.728;2023-03-01T13:49:55;8.30;99.00
23562;DHT22;11959;49.418;8.728;2023-03-01T13:55:40;8.40;99.00
23562;DHT22;11959;49.418;8.728;2023-03-01T14:00:56;8.40;98.80
23562;DHT22;11959;49.418;8.728;2023-03-01T14:03:22;8.40;98.90
23562;DHT22;11959;49.418;8.728;2023-03-01T14:08:35;8.40;99.10
23562;DHT22;11959;49.418;8.728;2023-03-01T14:19:30;8.60;98.40
23562;DHT22;11959;49.418;8.728;2023-03-01T14:22:22;8.60;98.60
23562;DHT22;11959;49.418;8.728;2023-03-01T14:25:16;8.60;98.80
23562;DHT22;11959;49.418;8.728;2023-03-01T14:27:39;8.60;98.90
23562;DHT22;11959;49.418;8.728;2023-03-01T14:32:38;8.60;98.80
23562;DHT22;11959;49.418;8.728;2023-03-01T14:35:23;8.60;98.60
23562;DHT22;11959;49.418;8.728;2023-03-01T14:37:49;8.70;98.30
23562;DHT22;11959;49.418;8.728;2023-03-01T14:40:30;8.70;98.20
23562;DHT22;11959;49.418;8.728;2023-03-01T14:42:59;8.60;98.70
23562;DHT22;11959;49.418;8.728;2023-03-01T14:45:27;8.60;98.20
23562;DHT22;11959;49.418;8.728;2023-03-01T14:47:55;8.60;98.60
23562;DHT22;11959;49.418;8.728;2023-03-01T14:50:35;8.50;98.40
23562;DHT22;11959;49.418;8.728;2023-03-01T14:53:04;8.60;98.30
23562;DHT22;11959;49.418;8.728;2023-03-01T14:55:37;8.60;98.40
23562;DHT22;11959;49.418;8.728;2023-03-01T14:58:11;8.70;98.20
23562;DHT22;11959;49.418;8.728;2023-03-01T15:00:39;8.70;98.20
23562;DHT22;11959;49.418;8.728;2023-03-01T15:03:31;8.70;98.70
23562;DHT22;11959;49.418;8.728;2023-03-01T15:05:59;8.60;98.80
23562;DHT22;11959;49.418;8.728;2023-03-01T15:08:27;8.60;98.70
23562;DHT22;11959;49.418;8.728;2023-03-01T15:13:39;8.60;98.40
23562;DHT22;11959;49.418;8.728;2023-03-01T15:16:24;8.70;98.10
23562;DHT22;11959;49.418;8.728;2023-03-01T15:18:55;8.70;98.20
23562;DHT22;11959;49.418;8.728;2023-03-01T15:21:23;8.70;98.10
23562;DHT22;11959;49.418;8.728;2023-03-01T15:23:56;8.60;98.10
23562;DHT22;11959;49.418;8.728;2023-03-01T15:26:29;8.60;98.30
23562;DHT22;11959;49.418;8.728;2023-03-01T15:28:57;8.60;98.30
23562;DHT22;11959;49.418;8.728;2023-03-01T15:31:35;8.60;98.30
23562;DHT22;11959;49.418;8.728;2023-03-01T15:34:21;8.70;97.80
23562;DHT22;11959;49.418;8.728;2023-03-01T15:36:48;8.70;97.90
23562;DHT22;11959;49.418;8.728;2023-03-01T15:42:10;8.60;98.00
23562;DHT22;11959;49.418;8.728;2023-03-01T15:44:39;8.60;98.00
23562;DHT22;11959;49.418;8.728;2023-03-01T15:47:28;8.60;98.20
23562;DHT22;11959;49.418;8.728;2023-03-01T15:49:55;8.50;98.30
23562;DHT22;11959;49.418;8.728;2023-03-01T15:52:35;8.50;98.10
23562;DHT22;11959;49.418;8.728;2023-03-01T15:55:14;8.50;98.00
23562;DHT22;11959;49.418;8.728;2023-03-01T15:57:40;8.50;98.30
23562;DHT22;11959;49.418;8.728;2023-03-01T16:00:10;8.40;98.50
23562;DHT22;11959;49.418;8.728;2023-03-01T16:02:40;8.30;98.50
23562;DHT22;11959;49.418;8.728;2023-03-01T16:05:28;8.40;98.30
23562;DHT22;11959;49.418;8.728;2023-03-01T16:07:53;8.30;98.40
23562;DHT22;11959;49.418;8.728;2023-03-01T16:10:19;8.20;98.60
23562;DHT22;11959;49.418;8.728;2023-03-01T16:12:45;8.20;98.90
23562;DHT22;11959;49.418;8.728;2023-03-01T16:15:21;8.20;98.70
23562;DHT22;11959;49.418;8.728;2023-03-01T16:17:49;8.20;98.70
23562;DHT22;11959;49.418;8.728;2023-03-01T16:20:15;8.20;98.70
23562;DHT22;11959;49.418;8.728;2023-03-01T16:22:44;8.20;98.70
23562;DHT22;11959;49.418;8.728;2023-03-01T16:25:12;8.10;98.70
23562;DHT22;11959;49.418;8.728;2023-03-01T16:27:38;8.20;98.80
23562;DHT22;11959;49.418;8.728;2023-03-01T16:30:05;8.20;98.50
23562;DHT22;11959;49.418;8.728;2023-03-01T16:32:31;8.10;98.60
23562;DHT22;11959;49.418;8.728;2023-03-01T16:34:57;8.10;98.90
23562;DHT22;11959;49.418;8.728;2023-03-01T16:37:23;8.00;98.70
23562;DHT22;11959;49.418;8.728;2023-03-01T16:39:48;8.00;99.00
23562;DHT22;11959;49.418;8.728;2023-03-01T16:42:17;7.90;99.00
23562;DHT22;11959;49.418;8.728;2023-03-01T16:44:43;7.80;99.40
23562;DHT22;11959;49.418;8.728;2023-03-01T16:47:09;7.70;99.80
23562;DHT22;11959;49.418;8.728;2023-03-01T16:49:34;7.80;99.60
23562;DHT22;11959;49.418;8.728;2023-03-01T16:52:00;7.70;99.40
23562;DHT22;11959;49.418;8.728;2023-03-01T16:54:25;7.60;99.60
23562;DHT22;11959;49.418;8.728;2023-03-01T16:56:51;7.60;99.80
23562;DHT22;11959;49.418;8.728;2023-03-01T16:59:17;7.50;99.90
23562;DHT22;11959;49.418;8.728;2023-03-01T17:01:44;7.40;99.90
23562;DHT22;11959;49.418;8.728;2023-03-01T17:04:11;7.30;99.90
23562;DHT22;11959;49.418;8.728;2023-03-01T17:06:37;7.30;99.90
23562;DHT22;11959;49.418;8.728;2023-03-01T17:09:03;7.20;99.90
23562;DHT22;11959;49.418;8.728;2023-03-01T17:11:28;7.20;99.90
23562;DHT22;11959;49.418;8.728;2023-03-01T17:13:54;7.10;99.90
23562;DHT22;11959;49.418;8.728;2023-03-01T17:16:20;7.10;99.90
23562;DHT22;11959;49.418;8.728;2023-03-01T17:18:46;7.00;99.90
23562;DHT22;11959;49.418;8.728;2023-03-01T17:21:12;6.90;99.90
23562;DHT22;11959;49.418;8.728;2023-03-01T17:23:40;6.80;99.90
23562;DHT22;11959;49.418;8.728;2023-03-01T17:26:07;6.70;99.90
23562;DHT22;11959;49.418;8.728;2023-03-01T17:28:34;6.70;99.90
23562;DHT22;11959;49.418;8.728;2023-03-01T17:31:01;6.60;99.90
23562;DHT22;11959;49.418;8.728;2023-03-01T17:33:27;6.60;99.90
23562;DHT22;11959;49.418;8.728;2023-03-01T17:35:55;6.50;99.90
23562;DHT22;11959;49.418;8.728;2023-03-01T17:38:21;6.40;99.90
23562;DHT22;11959;49.418;8.728;2023-03-01T17:40:47;6.30;99.90
23562;DHT22;11959;49.418;8.728;2023-03-01T17:43:14;6.30;99.90
23562;DHT22;11959;49.418;8.728;2023-03-01T17:45:40;6.20;99.90
23562;DHT22;11959;49.418;8.728;2023-03-01T17:48:09;6.20;99.90
23562;DHT22;11959;49.418;8.728;2023-03-01T17:50:37;6.10;99.90
23562;DHT22;11959;49.418;8.728;2023-03-01T17:53:05;6.10;99.90
23562;DHT22;11959;49.418;8.728;2023-03-01T17:55:37;6.00;99.90
23562;DHT22;11959;49.418;8.728;2023-03-01T17:58:04;6.00;99.90
23562;DHT22;11959;49.418;8.728;2023-03-01T18:00:30;5.90;99.90